sensor_id;sensor_type;location;lat;lon;timestamp;pressure;altitude;pressure_sealevel;temperature;humidity
48095;BME280;33874;52.070;-0.516;2023-05-02T00:01:27;101956.52;;;10.52;72.34
48095;BME280;33874;52.070;-0.516;2023-05-02T00:03:55;101959.34;;;10.49;72.28
48095;BME280;33874;52.070;-0.516;2023-05-02T00:06:23;101958.31;;;10.49;72.28
48095;BME280;33874;52.070;-0.516;2023-05-02T00:08:51;101961.76;;;10.50;72.41
48095;BME280;33874;52.070;-0.516;2023-05-02T00:11:19;101961.98;;;10.52;72.47
48095;BME280;33874;52.070;-0.516;2023-05-02T00:13:48;101961.87;;;10.53;72.55
48095;BME280;33874;52.070;-0.516;2023-05-02T00:16:16;101957.96;;;10.54;72.63
48095;BME280;33874;52.070;-0.516;2023-05-02T00:18:44;101955.19;;;10.54;72.70
48095;BME280;33874;52.070;-0.516;2023-05-02T00:21:13;101958.52;;;10.54;72.93
48095;BME280;33874;52.070;-0.516;2023-05-02T00:23:41;101959.61;;;10.53;72.89
48095;BME280;33874;52.070;-0.516;2023-05-02T00:26:09;101958.86;;;10.51;73.07
48095;BME280;33874;52.070;-0.516;2023-05-02T00:28:37;101955.66;;;10.46;72.81
48095;BME280;33874;52.070;-0.516;2023-05-02T00:31:06;101949.52;;;10.44;72.89
48095;BME280;33874;52.070;-0.516;2023-05-02T00:33:34;101949.38;;;10.41;72.82
48095;BME280;33874;52.070;-0.516;2023-05-02T00:36:02;101952.71;;;10.38;72.83
48095;BME280;33874;52.070;-0.516;2023-05-02T00:38:30;101953.77;;;10.35;72.93
48095;BME280;33874;52.070;-0.516;2023-05-02T00:40:58;101952.95;;;10.31;73.01
48095;BME280;33874;52.070;-0.516;2023-05-02T00:43:29;101957.23;;;10.28;72.97
48095;BME280;33874;52.070;-0.516;2023-05-02T00:45:57;101953.36;;;10.22;73.14
48095;BME280;33874;52.070;-0.516;2023-05-02T00:48:25;101960.61;;;10.18;73.21
48095;BME280;33874;52.070;-0.516;2023-05-02T00:50:55;101952.34;;;10.13;73.22
48095;BME280;33874;52.070;-0.516;2023-05-02T00:53:24;101954.97;;;10.07;73.30
48095;BME280;33874;52.070;-0.516;2023-05-02T00:55:52;101959.10;;;10.03;73.59
48095;BME280;33874;52.070;-0.516;2023-05-02T00:58:21;101958.52;;;9.98;73.73
48095;BME280;33874;52.070;-0.516;2023-05-02T01:03:33;101964.85;;;9.96;73.85
48095;BME280;33874;52.070;-0.516;2023-05-02T01:08:51;101967.75;;;9.97;74.05
48095;BME280;33874;52.070;-0.516;2023-05-02T01:11:27;101973.64;;;9.96;74.08
48095;BME280;33874;52.070;-0.516;2023-05-02T01:13:57;101979.27;;;9.95;74.01
48095;BME280;33874;52.070;-0.516;2023-05-02T01:16:26;101985.45;;;9.95;74.04
48095;BME280;33874;52.070;-0.516;2023-05-02T01:18:55;101991.56;;;9.93;73.91
48095;BME280;33874;52.070;-0.516;2023-05-02T01:21:24;101995.44;;;9.93;74.01
48095;BME280;33874;52.070;-0.516;2023-05-02T01:26:28;102000.08;;;9.91;73.98
48095;BME280;33874;52.070;-0.516;2023-05-02T01:28:59;101996.41;;;9.91;74.11
48095;BME280;33874;52.070;-0.516;2023-05-02T01:31:30;101996.71;;;9.92;74.14
48095;BME280;33874;52.070;-0.516;2023-05-02T01:33:59;101993.93;;;9.88;74.32
48095;BME280;33874;52.070;-0.516;2023-05-02T01:36:28;101988.16;;;9.85;74.44
48095;BME280;33874;52.070;-0.516;2023-05-02T01:38:58;101988.49;;;9.82;74.30
48095;BME280;33874;52.070;-0.516;2023-05-02T01:41:28;101985.62;;;9.81;74.33
48095;BME280;33874;52.070;-0.516;2023-05-02T01:43:57;101991.23;;;9.81;74.47
48095;BME280;33874;52.070;-0.516;2023-05-02T01:46:25;101993.29;;;9.82;74.62
48095;BME280;33874;52.070;-0.516;2023-05-02T01:48:55;101996.64;;;9.82;74.65
48095;BME280;33874;52.070;-0.516;2023-05-02T01:51:26;101994.83;;;9.82;74.56
48095;BME280;33874;52.070;-0.516;2023-05-02T01:54:01;102000.05;;;9.86;74.70
48095;BME280;33874;52.070;-0.516;2023-05-02T01:56:31;102002.89;;;9.88;74.64
48095;BME280;33874;52.070;-0.516;2023-05-02T01:59:07;102002.63;;;9.90;74.64
48095;BME280;33874;52.070;-0.516;2023-05-02T02:01:35;101999.58;;;9.91;74.57
48095;BME280;33874;52.070;-0.516;2023-05-02T02:04:04;102007.35;;;9.93;74.69
48095;BME280;33874;52.070;-0.516;2023-05-02T02:06:33;102015.48;;;9.95;74.60
48095;BME280;33874;52.070;-0.516;2023-05-02T02:09:02;102022.06;;;9.97;74.54
48095;BME280;33874;52.070;-0.516;2023-05-02T02:11:34;102022.52;;;9.97;74.51
48095;BME280;33874;52.070;-0.516;2023-05-02T02:14:06;102029.30;;;9.98;74.50
48095;BME280;33874;52.070;-0.516;2023-05-02T02:16:36;102029.27;;;9.99;74.54
48095;BME280;33874;52.070;-0.516;2023-05-02T02:19:06;102030.55;;;10.01;74.52
48095;BME280;33874;52.070;-0.516;2023-05-02T02:21:35;102028.88;;;10.02;74.57
48095;BME280;33874;52.070;-0.516;2023-05-02T02:24:05;102031.84;;;10.03;74.42
48095;BME280;33874;52.070;-0.516;2023-05-02T02:26:34;102039.55;;;10.03;74.40
48095;BME280;33874;52.070;-0.516;2023-05-02T02:29:03;102041.29;;;10.01;74.47
48095;BME280;33874;52.070;-0.516;2023-05-02T02:31:34;102043.89;;;9.98;74.54
48095;BME280;33874;52.070;-0.516;2023-05-02T02:34:03;102045.46;;;9.95;74.43
48095;BME280;33874;52.070;-0.516;2023-05-02T02:36:54;102049.59;;;9.94;74.47
48095;BME280;33874;52.070;-0.516;2023-05-02T02:39:29;102055.67;;;9.95;74.56
48095;BME280;33874;52.070;-0.516;2023-05-02T02:44:51;102060.70;;;9.99;74.73
48095;BME280;33874;52.070;-0.516;2023-05-02T02:47:35;102065.56;;;10.03;74.58
48095;BME280;33874;52.070;-0.516;2023-05-02T02:53:07;102075.73;;;10.03;74.48
48095;BME280;33874;52.070;-0.516;2023-05-02T02:55:43;102073.14;;;10.02;74.26
48095;BME280;33874;52.070;-0.516;2023-05-02T03:00:47;102075.60;;;10.00;74.39
48095;BME280;33874;52.070;-0.516;2023-05-02T03:03:16;102080.06;;;10.01;74.53
48095;BME280;33874;52.070;-0.516;2023-05-02T03:05:45;102083.15;;;10.02;74.54
48095;BME280;33874;52.070;-0.516;2023-05-02T03:08:14;102087.15;;;10.03;74.44
48095;BME280;33874;52.070;-0.516;2023-05-02T03:10:42;102086.39;;;10.04;74.50
48095;BME280;33874;52.070;-0.516;2023-05-02T03:13:10;102086.42;;;10.04;74.45
48095;BME280;33874;52.070;-0.516;2023-05-02T03:18:19;102090.68;;;10.06;74.51
48095;BME280;33874;52.070;-0.516;2023-05-02T03:20:47;102093.46;;;10.06;74.49
48095;BME280;33874;52.070;-0.516;2023-05-02T03:23:14;102095.17;;;10.07;74.40
48095;BME280;33874;52.070;-0.516;2023-05-02T03:25:43;102093.11;;;10.06;74.32
48095;BME280;33874;52.070;-0.516;2023-05-02T03:28:11;102092.89;;;10.04;74.22
48095;BME280;33874;52.070;-0.516;2023-05-02T03:30:41;102091.17;;;10.00;74.25
48095;BME280;33874;52.070;-0.516;2023-05-02T03:33:09;102092.64;;;9.97;74.36
48095;BME280;33874;52.070;-0.516;2023-05-02T03:35:37;102092.32;;;9.93;74.39
48095;BME280;33874;52.070;-0.516;2023-05-02T03:38:06;102092.75;;;9.92;74.50
48095;BME280;33874;52.070;-0.516;2023-05-02T03:40:34;102097.77;;;9.90;74.44
48095;BME280;33874;52.070;-0.516;2023-05-02T03:43:02;102097.66;;;9.90;74.47
48095;BME280;33874;52.070;-0.516;2023-05-02T03:45:29;102095.79;;;9.88;74.58
48095;BME280;33874;52.070;-0.516;2023-05-02T03:47:58;102098.60;;;9.88;74.58
48095;BME280;33874;52.070;-0.516;2023-05-02T03:50:26;102102.77;;;9.89;74.72
48095;BME280;33874;52.070;-0.516;2023-05-02T03:52:54;102101.16;;;9.90;74.79
48095;BME280;33874;52.070;-0.516;2023-05-02T03:55:22;102105.81;;;9.91;74.80
48095;BME280;33874;52.070;-0.516;2023-05-02T03:57:50;102108.91;;;9.92;74.83
48095;BME280;33874;52.070;-0.516;2023-05-02T04:00:18;102110.25;;;9.93;74.83
48095;BME280;33874;52.070;-0.516;2023-05-02T04:02:46;102112.14;;;9.94;74.87
48095;BME280;33874;52.070;-0.516;2023-05-02T04:05:14;102117.38;;;9.94;74.83
48095;BME280;33874;52.070;-0.516;2023-05-02T04:07:43;102116.04;;;9.93;74.76
48095;BME280;33874;52.070;-0.516;2023-05-02T04:10:11;102114.02;;;9.92;74.73
48095;BME280;33874;52.070;-0.516;2023-05-02T04:12:43;102116.94;;;9.90;74.79
48095;BME280;33874;52.070;-0.516;2023-05-02T04:15:11;102118.80;;;9.88;74.81
48095;BME280;33874;52.070;-0.516;2023-05-02T04:17:39;102121.05;;;9.86;74.77
48095;BME280;33874;52.070;-0.516;2023-05-02T04:20:07;102119.38;;;9.85;74.87
48095;BME280;33874;52.070;-0.516;2023-05-02T04:22:36;102119.21;;;9.84;74.94
48095;BME280;33874;52.070;-0.516;2023-05-02T04:25:06;102118.88;;;9.84;74.90
48095;BME280;33874;52.070;-0.516;2023-05-02T04:27:35;102119.38;;;9.82;74.94
48095;BME280;33874;52.070;-0.516;2023-05-02T04:30:04;102120.38;;;9.80;74.74
48095;BME280;33874;52.070;-0.516;2023-05-02T04:32:33;102120.30;;;9.78;74.93
48095;BME280;33874;52.070;-0.516;2023-05-02T04:35:02;102116.64;;;9.75;74.94
48095;BME280;33874;52.070;-0.516;2023-05-02T04:37:31;102120.08;;;9.73;75.06
48095;BME280;33874;52.070;-0.516;2023-05-02T04:39:59;102123.33;;;9.71;75.04
48095;BME280;33874;52.070;-0.516;2023-05-02T04:42:28;102124.42;;;9.71;75.15
48095;BME280;33874;52.070;-0.516;2023-05-02T04:44:56;102126.79;;;9.72;75.21
48095;BME280;33874;52.070;-0.516;2023-05-02T04:47:24;102127.83;;;9.72;75.06
48095;BME280;33874;52.070;-0.516;2023-05-02T04:49:52;102129.46;;;9.72;75.24
48095;BME280;33874;52.070;-0.516;2023-05-02T04:52:20;102133.02;;;9.71;75.26
48095;BME280;33874;52.070;-0.516;2023-05-02T04:54:48;102134.02;;;9.69;75.25
48095;BME280;33874;52.070;-0.516;2023-05-02T04:57:16;102141.15;;;9.67;75.22
48095;BME280;33874;52.070;-0.516;2023-05-02T04:59:43;102151.62;;;9.65;75.20
48095;BME280;33874;52.070;-0.516;2023-05-02T05:02:12;102156.52;;;9.66;75.42
48095;BME280;33874;52.070;-0.516;2023-05-02T05:04:40;102159.43;;;9.66;75.45
48095;BME280;33874;52.070;-0.516;2023-05-02T05:07:08;102164.66;;;9.67;75.41
48095;BME280;33874;52.070;-0.516;2023-05-02T05:09:36;102169.75;;;9.70;75.50
48095;BME280;33874;52.070;-0.516;2023-05-02T05:12:04;102175.70;;;9.70;75.38
48095;BME280;33874;52.070;-0.516;2023-05-02T05:14:32;102175.70;;;9.71;75.27
48095;BME280;33874;52.070;-0.516;2023-05-02T05:17:01;102177.42;;;9.71;75.32
48095;BME280;33874;52.070;-0.516;2023-05-02T05:19:30;102181.06;;;9.72;75.40
48095;BME280;33874;52.070;-0.516;2023-05-02T05:21:58;102184.48;;;9.73;75.38
48095;BME280;33874;52.070;-0.516;2023-05-02T05:24:26;102183.40;;;9.74;75.39
48095;BME280;33874;52.070;-0.516;2023-05-02T05:26:55;102185.13;;;9.77;75.38
48095;BME280;33874;52.070;-0.516;2023-05-02T05:29:23;102182.30;;;9.81;75.39
48095;BME280;33874;52.070;-0.516;2023-05-02T05:31:51;102186.34;;;9.86;75.51
48095;BME280;33874;52.070;-0.516;2023-05-02T05:34:19;102186.60;;;9.91;75.47
48095;BME280;33874;52.070;-0.516;2023-05-02T05:36:48;102189.52;;;9.95;75.42
48095;BME280;33874;52.070;-0.516;2023-05-02T05:39:15;102189.85;;;9.98;75.36
48095;BME280;33874;52.070;-0.516;2023-05-02T05:41:43;102192.86;;;10.01;75.32
48095;BME280;33874;52.070;-0.516;2023-05-02T05:44:11;102196.70;;;10.04;75.27
48095;BME280;33874;52.070;-0.516;2023-05-02T05:46:39;102195.58;;;10.11;75.32
48095;BME280;33874;52.070;-0.516;2023-05-02T05:49:07;102201.89;;;10.17;75.26
48095;BME280;33874;52.070;-0.516;2023-05-02T05:51:35;102199.18;;;10.21;75.09
48095;BME280;33874;52.070;-0.516;2023-05-02T05:54:03;102200.52;;;10.26;74.88
48095;BME280;33874;52.070;-0.516;2023-05-02T05:56:32;102204.83;;;10.30;74.79
48095;BME280;33874;52.070;-0.516;2023-05-02T05:59:00;102208.40;;;10.32;74.79
48095;BME280;33874;52.070;-0.516;2023-05-02T06:01:28;102211.98;;;10.37;74.73
48095;BME280;33874;52.070;-0.516;2023-05-02T06:03:56;102219.64;;;10.41;74.53
48095;BME280;33874;52.070;-0.516;2023-05-02T06:06:25;102217.04;;;10.43;74.38
48095;BME280;33874;52.070;-0.516;2023-05-02T06:08:54;102215.56;;;10.45;74.19
48095;BME280;33874;52.070;-0.516;2023-05-02T06:11:24;102214.80;;;10.43;74.25
48095;BME280;33874;52.070;-0.516;2023-05-02T06:13:52;102216.34;;;10.43;74.13
48095;BME280;33874;52.070;-0.516;2023-05-02T06:16:20;102218.71;;;10.45;73.98
48095;BME280;33874;52.070;-0.516;2023-05-02T06:18:49;102220.89;;;10.46;74.01
48095;BME280;33874;52.070;-0.516;2023-05-02T06:21:17;102227.65;;;10.48;74.03
48095;BME280;33874;52.070;-0.516;2023-05-02T06:23:45;102230.44;;;10.51;74.07
48095;BME280;33874;52.070;-0.516;2023-05-02T06:26:13;102235.52;;;10.54;74.02
48095;BME280;33874;52.070;-0.516;2023-05-02T06:28:41;102237.71;;;10.56;74.12
48095;BME280;33874;52.070;-0.516;2023-05-02T06:31:09;102241.20;;;10.59;74.22
48095;BME280;33874;52.070;-0.516;2023-05-02T06:33:37;102238.39;;;10.62;74.21
48095;BME280;33874;52.070;-0.516;2023-05-02T06:36:05;102238.67;;;10.60;73.90
48095;BME280;33874;52.070;-0.516;2023-05-02T06:38:34;102243.09;;;10.57;73.74
48095;BME280;33874;52.070;-0.516;2023-05-02T06:41:03;102240.20;;;10.58;74.02
48095;BME280;33874;52.070;-0.516;2023-05-02T06:43:30;102242.05;;;10.63;74.06
48095;BME280;33874;52.070;-0.516;2023-05-02T06:45:59;102241.41;;;10.70;74.13
48095;BME280;33874;52.070;-0.516;2023-05-02T06:48:27;102246.48;;;10.79;73.87
48095;BME280;33874;52.070;-0.516;2023-05-02T06:50:55;102247.13;;;10.86;73.36
48095;BME280;33874;52.070;-0.516;2023-05-02T06:53:23;102248.92;;;10.96;73.31
48095;BME280;33874;52.070;-0.516;2023-05-02T06:55:51;102251.83;;;11.09;72.92
48095;BME280;33874;52.070;-0.516;2023-05-02T06:58:20;102252.48;;;11.16;72.73
48095;BME280;33874;52.070;-0.516;2023-05-02T07:00:47;102251.88;;;11.22;72.52
48095;BME280;33874;52.070;-0.516;2023-05-02T07:03:17;102251.23;;;11.38;72.45
48095;BME280;33874;52.070;-0.516;2023-05-02T07:05:44;102250.27;;;11.55;72.02
48095;BME280;33874;52.070;-0.516;2023-05-02T07:08:14;102250.45;;;11.85;71.48
48095;BME280;33874;52.070;-0.516;2023-05-02T07:10:42;102249.55;;;11.98;71.25
48095;BME280;33874;52.070;-0.516;2023-05-02T07:13:10;102250.30;;;12.06;70.93
48095;BME280;33874;52.070;-0.516;2023-05-02T07:15:38;102250.09;;;12.03;70.67
48095;BME280;33874;52.070;-0.516;2023-05-02T07:18:06;102246.86;;;11.99;70.32
48095;BME280;33874;52.070;-0.516;2023-05-02T07:20:34;102248.21;;;11.97;70.45
48095;BME280;33874;52.070;-0.516;2023-05-02T07:23:02;102248.33;;;12.01;70.34
48095;BME280;33874;52.070;-0.516;2023-05-02T07:25:29;102248.23;;;12.00;69.91
48095;BME280;33874;52.070;-0.516;2023-05-02T07:28:02;102248.90;;;12.00;69.95
48095;BME280;33874;52.070;-0.516;2023-05-02T07:30:30;102253.65;;;12.09;70.03
48095;BME280;33874;52.070;-0.516;2023-05-02T07:32:59;102255.70;;;12.12;69.61
48095;BME280;33874;52.070;-0.516;2023-05-02T07:35:28;102257.38;;;12.11;69.65
48095;BME280;33874;52.070;-0.516;2023-05-02T07:37:58;102256.23;;;12.12;69.65
48095;BME280;33874;52.070;-0.516;2023-05-02T07:40:26;102262.59;;;12.14;69.59
48095;BME280;33874;52.070;-0.516;2023-05-02T07:42:56;102259.36;;;12.18;69.64
48095;BME280;33874;52.070;-0.516;2023-05-02T07:45:24;102263.78;;;12.23;69.37
48095;BME280;33874;52.070;-0.516;2023-05-02T07:47:52;102265.85;;;12.21;69.13
48095;BME280;33874;52.070;-0.516;2023-05-02T07:50:20;102267.23;;;12.19;68.88
48095;BME280;33874;52.070;-0.516;2023-05-02T07:52:49;102270.63;;;12.28;69.25
48095;BME280;33874;52.070;-0.516;2023-05-02T07:55:17;102268.67;;;12.39;69.05
48095;BME280;33874;52.070;-0.516;2023-05-02T07:57:45;102265.71;;;12.38;68.78
48095;BME280;33874;52.070;-0.516;2023-05-02T08:00:13;102267.05;;;12.34;68.78
48095;BME280;33874;52.070;-0.516;2023-05-02T08:02:41;102269.94;;;12.33;68.70
48095;BME280;33874;52.070;-0.516;2023-05-02T08:05:09;102268.56;;;12.30;68.68
48095;BME280;33874;52.070;-0.516;2023-05-02T08:07:40;102275.80;;;12.22;68.47
48095;BME280;33874;52.070;-0.516;2023-05-02T08:10:08;102278.69;;;12.21;68.90
48095;BME280;33874;52.070;-0.516;2023-05-02T08:12:40;102283.04;;;12.27;68.88
48095;BME280;33874;52.070;-0.516;2023-05-02T08:15:09;102283.25;;;12.35;68.99
48095;BME280;33874;52.070;-0.516;2023-05-02T08:17:38;102277.79;;;12.42;68.76
48095;BME280;33874;52.070;-0.516;2023-05-02T08:20:10;102283.27;;;12.45;68.35
48095;BME280;33874;52.070;-0.516;2023-05-02T08:22:38;102285.02;;;12.45;68.28
48095;BME280;33874;52.070;-0.516;2023-05-02T08:25:06;102286.02;;;12.51;68.37
48095;BME280;33874;52.070;-0.516;2023-05-02T08:27:34;102284.38;;;12.52;68.16
48095;BME280;33874;52.070;-0.516;2023-05-02T08:30:05;102288.92;;;12.49;68.07
48095;BME280;33874;52.070;-0.516;2023-05-02T08:32:35;102290.92;;;12.43;68.19
48095;BME280;33874;52.070;-0.516;2023-05-02T08:35:03;102297.63;;;12.43;68.26
48095;BME280;33874;52.070;-0.516;2023-05-02T08:37:32;102304.36;;;12.48;68.37
48095;BME280;33874;52.070;-0.516;2023-05-02T08:39:59;102305.23;;;12.48;67.91
48095;BME280;33874;52.070;-0.516;2023-05-02T08:42:28;102305.12;;;12.45;68.03
48095;BME280;33874;52.070;-0.516;2023-05-02T08:44:59;102310.32;;;12.48;68.26
48095;BME280;33874;52.070;-0.516;2023-05-02T08:47:29;102315.67;;;12.53;68.08
48095;BME280;33874;52.070;-0.516;2023-05-02T08:49:58;102320.16;;;12.55;67.99
48095;BME280;33874;52.070;-0.516;2023-05-02T08:52:27;102322.80;;;12.55;67.99
48095;BME280;33874;52.070;-0.516;2023-05-02T08:54:56;102329.27;;;12.56;68.08
48095;BME280;33874;52.070;-0.516;2023-05-02T08:57:27;102332.07;;;12.53;67.94
48095;BME280;33874;52.070;-0.516;2023-05-02T08:59:56;102334.20;;;12.58;68.23
48095;BME280;33874;52.070;-0.516;2023-05-02T09:05:20;102327.89;;;12.58;67.57
48095;BME280;33874;52.070;-0.516;2023-05-02T09:07:50;102328.47;;;12.57;67.67
48095;BME280;33874;52.070;-0.516;2023-05-02T09:10:18;102327.30;;;12.61;67.61
48095;BME280;33874;52.070;-0.516;2023-05-02T09:12:48;102325.98;;;12.65;67.16
48095;BME280;33874;52.070;-0.516;2023-05-02T09:15:16;102323.61;;;12.71;67.11
48095;BME280;33874;52.070;-0.516;2023-05-02T09:17:47;102324.50;;;12.81;67.02
48095;BME280;33874;52.070;-0.516;2023-05-02T09:20:16;102326.52;;;12.90;67.24
48095;BME280;33874;52.070;-0.516;2023-05-02T09:22:47;102329.59;;;12.99;66.85
48095;BME280;33874;52.070;-0.516;2023-05-02T09:25:16;102332.95;;;13.09;66.99
48095;BME280;33874;52.070;-0.516;2023-05-02T09:30:20;102327.30;;;13.27;66.15
48095;BME280;33874;52.070;-0.516;2023-05-02T09:32:48;102331.76;;;13.29;66.10
48095;BME280;33874;52.070;-0.516;2023-05-02T09:35:24;102333.38;;;13.29;65.93
48095;BME280;33874;52.070;-0.516;2023-05-02T09:37:53;102339.67;;;13.32;66.10
48095;BME280;33874;52.070;-0.516;2023-05-02T09:40:21;102338.49;;;13.38;66.02
48095;BME280;33874;52.070;-0.516;2023-05-02T09:42:50;102335.07;;;13.49;65.98
48095;BME280;33874;52.070;-0.516;2023-05-02T09:45:18;102338.67;;;13.66;66.03
48095;BME280;33874;52.070;-0.516;2023-05-02T09:47:46;102344.31;;;13.83;65.74
48095;BME280;33874;52.070;-0.516;2023-05-02T09:50:30;102346.22;;;13.81;65.11
48095;BME280;33874;52.070;-0.516;2023-05-02T09:53:00;102346.82;;;13.77;65.38
48095;BME280;33874;52.070;-0.516;2023-05-02T09:55:31;102342.30;;;13.67;64.87
48095;BME280;33874;52.070;-0.516;2023-05-02T09:58:06;102345.31;;;13.49;64.79
48095;BME280;33874;52.070;-0.516;2023-05-02T10:00:48;102342.34;;;13.39;64.95
48095;BME280;33874;52.070;-0.516;2023-05-02T10:03:26;102348.28;;;13.47;65.29
48095;BME280;33874;52.070;-0.516;2023-05-02T10:05:57;102346.91;;;13.61;65.06
48095;BME280;33874;52.070;-0.516;2023-05-02T10:08:31;102349.23;;;13.80;65.32
48095;BME280;33874;52.070;-0.516;2023-05-02T10:11:06;102350.01;;;14.04;65.12
48095;BME280;33874;52.070;-0.516;2023-05-02T10:13:40;102349.80;;;14.13;64.53
48095;BME280;33874;52.070;-0.516;2023-05-02T10:16:12;102347.92;;;14.20;64.23
48095;BME280;33874;52.070;-0.516;2023-05-02T10:18:51;102350.12;;;14.26;64.22
48095;BME280;33874;52.070;-0.516;2023-05-02T10:21:23;102347.79;;;14.33;64.11
48095;BME280;33874;52.070;-0.516;2023-05-02T10:23:59;102353.09;;;14.40;64.13
48095;BME280;33874;52.070;-0.516;2023-05-02T10:26:31;102350.79;;;14.55;64.20
48095;BME280;33874;52.070;-0.516;2023-05-02T10:29:06;102351.67;;;14.66;63.98
48095;BME280;33874;52.070;-0.516;2023-05-02T10:31:56;102348.19;;;14.68;63.57
48095;BME280;33874;52.070;-0.516;2023-05-02T10:34:33;102354.31;;;14.66;63.51
48095;BME280;33874;52.070;-0.516;2023-05-02T10:37:06;102356.98;;;14.50;62.94
48095;BME280;33874;52.070;-0.516;2023-05-02T10:39:35;102357.20;;;14.37;62.92
48095;BME280;33874;52.070;-0.516;2023-05-02T10:42:05;102361.49;;;14.25;62.84
48095;BME280;33874;52.070;-0.516;2023-05-02T10:44:56;102358.55;;;14.24;63.19
48095;BME280;33874;52.070;-0.516;2023-05-02T10:47:31;102358.66;;;14.30;63.26
48095;BME280;33874;52.070;-0.516;2023-05-02T10:50:03;102360.15;;;14.40;63.00
48095;BME280;33874;52.070;-0.516;2023-05-02T10:52:37;102361.10;;;14.56;63.02
48095;BME280;33874;52.070;-0.516;2023-05-02T10:55:16;102362.56;;;14.74;63.15
48095;BME280;33874;52.070;-0.516;2023-05-02T11:00:32;102364.63;;;14.93;62.94
48095;BME280;33874;52.070;-0.516;2023-05-02T11:06:27;102369.89;;;14.82;62.13
48095;BME280;33874;52.070;-0.516;2023-05-02T11:12:07;102373.64;;;14.86;62.58
48095;BME280;33874;52.070;-0.516;2023-05-02T11:17:09;102373.84;;;14.96;62.15
48095;BME280;33874;52.070;-0.516;2023-05-02T11:22:57;102381.04;;;14.83;61.56
48095;BME280;33874;52.070;-0.516;2023-05-02T11:25:43;102381.64;;;14.77;61.57
48095;BME280;33874;52.070;-0.516;2023-05-02T11:31:06;102384.43;;;14.78;61.86
48095;BME280;33874;52.070;-0.516;2023-05-02T11:33:36;102385.64;;;14.80;61.87
48095;BME280;33874;52.070;-0.516;2023-05-02T11:36:05;102380.28;;;14.95;62.23
48095;BME280;33874;52.070;-0.516;2023-05-02T11:38:41;102383.33;;;15.15;62.14
48095;BME280;33874;52.070;-0.516;2023-05-02T11:41:10;102381.91;;;15.26;61.50
48095;BME280;33874;52.070;-0.516;2023-05-02T11:44:02;102378.38;;;15.26;60.96
48095;BME280;33874;52.070;-0.516;2023-05-02T11:47:14;102375.75;;;15.27;60.66
48095;BME280;33874;52.070;-0.516;2023-05-02T11:52:59;102380.21;;;15.36;60.96
48095;BME280;33874;52.070;-0.516;2023-05-02T11:55:27;102382.20;;;15.35;60.65
48095;BME280;33874;52.070;-0.516;2023-05-02T11:57:58;102385.54;;;15.27;60.50
48095;BME280;33874;52.070;-0.516;2023-05-02T12:00:27;102393.39;;;15.20;60.62
48095;BME280;33874;52.070;-0.516;2023-05-02T12:02:56;102399.46;;;15.21;60.66
48095;BME280;33874;52.070;-0.516;2023-05-02T12:05:30;102403.65;;;15.22;60.47
48095;BME280;33874;52.070;-0.516;2023-05-02T12:08:03;102400.23;;;15.18;60.33
48095;BME280;33874;52.070;-0.516;2023-05-02T12:10:58;102400.27;;;15.15;60.43
48095;BME280;33874;52.070;-0.516;2023-05-02T12:13:29;102407.10;;;15.12;60.56
48095;BME280;33874;52.070;-0.516;2023-05-02T12:16:34;102405.65;;;15.17;60.86
48095;BME280;33874;52.070;-0.516;2023-05-02T12:19:05;102399.80;;;15.23;60.83
48095;BME280;33874;52.070;-0.516;2023-05-02T12:21:34;102408.29;;;15.28;60.59
48095;BME280;33874;52.070;-0.516;2023-05-02T12:24:03;102420.52;;;15.28;60.65
48095;BME280;33874;52.070;-0.516;2023-05-02T12:26:38;102426.31;;;15.29;60.21
48095;BME280;33874;52.070;-0.516;2023-05-02T12:29:08;102419.98;;;15.30;60.61
48095;BME280;33874;52.070;-0.516;2023-05-02T12:31:49;102419.59;;;15.37;60.24
48095;BME280;33874;52.070;-0.516;2023-05-02T12:34:38;102418.17;;;15.40;59.81
48095;BME280;33874;52.070;-0.516;2023-05-02T12:37:07;102415.52;;;15.54;60.10
48095;BME280;33874;52.070;-0.516;2023-05-02T12:39:50;102420.39;;;15.73;59.99
48095;BME280;33874;52.070;-0.516;2023-05-02T12:42:28;102418.02;;;15.82;59.47
48095;BME280;33874;52.070;-0.516;2023-05-02T12:45:00;102419.06;;;15.91;59.46
48095;BME280;33874;52.070;-0.516;2023-05-02T12:47:32;102415.54;;;16.06;59.50
48095;BME280;33874;52.070;-0.516;2023-05-02T12:50:56;102417.95;;;16.16;58.84
48095;BME280;33874;52.070;-0.516;2023-05-02T12:53:40;102413.96;;;16.23;58.48
48095;BME280;33874;52.070;-0.516;2023-05-02T12:56:14;102405.06;;;16.30;58.23
48095;BME280;33874;52.070;-0.516;2023-05-02T12:58:48;102409.81;;;16.39;58.24
48095;BME280;33874;52.070;-0.516;2023-05-02T13:01:19;102413.61;;;16.46;58.35
48095;BME280;33874;52.070;-0.516;2023-05-02T13:03:49;102412.10;;;16.56;58.53
48095;BME280;33874;52.070;-0.516;2023-05-02T13:06:20;102410.80;;;16.65;58.33
48095;BME280;33874;52.070;-0.516;2023-05-02T13:08:50;102417.56;;;16.67;57.98
48095;BME280;33874;52.070;-0.516;2023-05-02T13:11:19;102419.23;;;16.69;58.11
48095;BME280;33874;52.070;-0.516;2023-05-02T13:13:51;102415.66;;;16.69;57.90
48095;BME280;33874;52.070;-0.516;2023-05-02T13:16:22;102414.52;;;16.74;57.91
48095;BME280;33874;52.070;-0.516;2023-05-02T13:18:55;102412.57;;;16.83;57.80
48095;BME280;33874;52.070;-0.516;2023-05-02T13:21:27;102410.39;;;16.89;57.65
48095;BME280;33874;52.070;-0.516;2023-05-02T13:24:10;102405.41;;;16.97;57.27
48095;BME280;33874;52.070;-0.516;2023-05-02T13:26:42;102402.21;;;16.91;56.53
48095;BME280;33874;52.070;-0.516;2023-05-02T13:29:10;102408.77;;;16.86;56.65
48095;BME280;33874;52.070;-0.516;2023-05-02T13:31:47;102409.41;;;16.86;56.99
48095;BME280;33874;52.070;-0.516;2023-05-02T13:34:16;102410.55;;;16.89;57.13
48095;BME280;33874;52.070;-0.516;2023-05-02T13:36:46;102409.88;;;16.97;57.15
48095;BME280;33874;52.070;-0.516;2023-05-02T13:39:15;102405.86;;;16.97;56.82
48095;BME280;33874;52.070;-0.516;2023-05-02T13:41:56;102406.33;;;16.89;56.74
48095;BME280;33874;52.070;-0.516;2023-05-02T13:44:30;102404.37;;;16.81;56.73
48095;BME280;33874;52.070;-0.516;2023-05-02T13:46:59;102406.15;;;16.74;56.89